John Quigg — WDB9828 — position and weather

sailwx.info

Track history (hours):
 
Tides and Currents Weather Stations Pressure Air Temp Water Temp Dewpoint Dewpoint Depression Visibility Wind Speed Wind Dir Waves Ship Positions

John Quigg

Owner: Harley Marine Services, Inc, Seattle, WA. More information available from US FCC via Universal Licensing System and Coast Guard Vessel Documentation Center.

Last reported at 2015-Apr-18 08:33 UTC. Time now 2015-Apr-18 08:45 UTC.
Position N 33°44' W 118°16'.

MMSI: 365934954.

Date/timePositionNaut miles runAvg speedWind from/ knotsBaromVisibWave heightAir tempDewpointWater temp
2015-Apr-18 08:33N 33°44' W 118°16'0 0.0
2015-Apr-18 07:33N 33°44' W 118°16'0 0.0
2015-Apr-18 06:33N 33°44' W 118°16'0 0.0
2015-Apr-18 05:33N 33°44' W 118°16'0 0.0
2015-Apr-18 04:33N 33°44' W 118°16'0 0.0
2015-Apr-18 03:33N 33°44' W 118°16'2 1.6
2015-Apr-18 02:33N 33°45' W 118°17'2 1.9
2015-Apr-18 01:33N 33°44' W 118°15'0 0.1
2015-Apr-18 00:33N 33°44' W 118°15'0 0.4
2015-Apr-17 23:33N 33°44' W 118°16'0 0.3
2015-Apr-17 22:33N 33°44' W 118°16'0 0.3
2015-Apr-17 21:33N 33°44' W 118°16'0 0.0
2015-Apr-17 20:33N 33°44' W 118°16'1 0.5
2015-Apr-17 18:22N 33°45' W 118°16'7 2.4
2015-Apr-17 15:33N 33°44' W 118°08'2 1.6
2015-Apr-17 14:21N 33°44' W 118°06'5 6.1
2015-Apr-17 13:29N 33°44' W 118°12'1 0.8
2015-Apr-17 12:03N 33°45' W 118°13'3 0.3
2015-Apr-17 03:25N 33°45' W 118°16'1 0.8
2015-Apr-17 02:32N 33°45' W 118°16'2 1.7
2015-Apr-17 01:33N 33°44' W 118°16'3 0.5
2015-Apr-16 20:21N 33°44' W 118°12'3 0.6
2015-Apr-16 15:16N 33°46' W 118°15'2 2.5
2015-Apr-16 14:33N 33°45' W 118°17'1 0.7
2015-Apr-16 13:33N 33°44' W 118°16'1 1.3
2015-Apr-16 12:27N 33°45' W 118°17'1 1.1
2015-Apr-16 11:31N 33°44' W 118°17'3 2.7
2015-Apr-16 10:32N 33°43' W 118°14'2 1.8
2015-Apr-16 09:33N 33°44' W 118°16'0 0.0
2015-Apr-16 08:33N 33°44' W 118°16'0 0.0
2015-Apr-16 07:31N 33°44' W 118°16'0 0.0
2015-Apr-16 06:33N 33°44' W 118°16'0 0.0
2015-Apr-16 03:33N 33°44' W 118°16'3 2.7
2015-Apr-16 02:33N 33°46' W 118°13'0 0.2
2015-Apr-16 01:32N 33°45' W 118°13'3 2.7
2015-Apr-16 00:33N 33°44' W 118°11'1 0.7
2015-Apr-15 22:32N 33°44' W 118°09'0 0.0
2015-Apr-15 21:33N 33°44' W 118°09'0 0.0
2015-Apr-15 20:33N 33°44' W 118°09'3 2.7
2015-Apr-15 19:33N 33°44' W 118°12'0 0.4
2015-Apr-15 18:33N 33°45' W 118°13'1 0.8
2015-Apr-15 17:33N 33°45' W 118°13'3 2.9
2015-Apr-15 16:33N 33°43' W 118°15'3 0.4
2015-Apr-15 08:24N 33°46' W 118°15'2 0.4
2015-Apr-15 04:05N 33°45' W 118°13'0 0.0
2015-Apr-15 03:09N 33°45' W 118°13'0 0.2
2015-Apr-15 02:31N 33°45' W 118°13'0 0.2
2015-Apr-15 00:09N 33°45' W 118°13'1 0.9
2015-Apr-14 23:33N 33°45' W 118°13'0 0.2
2015-Apr-14 22:33N 33°45' W 118°13'0 0.0
2015-Apr-14 15:32N 33°45' W 118°13'1 0.5
2015-Apr-14 14:32N 33°46' W 118°13'2 1.6
2015-Apr-14 13:30N 33°45' W 118°12'2 2.0
2015-Apr-14 12:33N 33°46' W 118°13'0 0.4
2015-Apr-14 11:33N 33°46' W 118°13'2 1.6
2015-Apr-14 10:33N 33°46' W 118°15'2 1.5
2015-Apr-14 09:23N 33°45' W 118°17'3 0.5
2015-Apr-14 02:27N 33°45' W 118°13'0 0.1
2015-Apr-14 00:30N 33°45' W 118°13'1 0.6
2015-Apr-13 23:31N 33°45' W 118°13'0 0.0
2015-Apr-13 11:29N 33°45' W 118°13'0 0.5
2015-Apr-13 10:28N 33°45' W 118°13'3 0.9
2015-Apr-13 07:20N 33°44' W 118°16'1 0.8
2015-Apr-13 05:29N 33°43' W 118°14'2 2.2
2015-Apr-13 04:33N 33°44' W 118°12'1 0.6
2015-Apr-13 03:32N 33°45' W 118°12'0 0.4
2015-Apr-13 02:33N 33°45' W 118°13'0 0.3
2015-Apr-13 01:33N 33°45' W 118°13'0 0.0
2015-Apr-13 00:33N 33°45' W 118°13'0 0.0
2015-Apr-12 23:28N 33°45' W 118°13'0 0.0
2015-Apr-12 22:33N 33°45' W 118°13'0 0.0
2015-Apr-12 21:33N 33°45' W 118°13'0 0.4
2015-Apr-12 20:33N 33°45' W 118°12'3 2.9
2015-Apr-12 19:33N 33°44' W 118°16'2 0.5
2015-Apr-12 15:30N 33°45' W 118°14'3 2.0
2015-Apr-12 14:09N 33°44' W 118°11'2 2.8
2015-Apr-12 13:33N 33°44' W 118°12'3 0.3
2015-Apr-12 05:17N 33°44' W 118°16'3 1.7
2015-Apr-12 03:33N 33°44' W 118°12'0 0.0
2015-Apr-12 02:33N 33°44' W 118°12'0 0.0
2015-Apr-12 01:32N 33°44' W 118°12'0 0.0
2015-Apr-12 00:32N 33°44' W 118°12'0 0.0
2015-Apr-11 23:33N 33°44' W 118°12'0 0.1
2015-Apr-11 22:09N 33°44' W 118°12'4 4.2
2015-Apr-11 21:17N 33°45' W 118°16'0 0.1
2015-Apr-11 20:31N 33°45' W 118°17'4 3.8
2015-Apr-11 19:28N 33°44' W 118°12'1 0.8
2015-Apr-11 18:13N 33°45' W 118°12'0 0.1
2015-Apr-11 13:28N 33°45' W 118°13'0 0.4
2015-Apr-11 12:19N 33°45' W 118°13'1 1.3
2015-Apr-11 11:33N 33°46' W 118°13'3 0.4
2015-Apr-11 02:33N 33°43' W 118°14'1 1.3
2015-Apr-11 01:33N 33°44' W 118°16'4 4.1
2015-Apr-11 00:33N 33°44' W 118°11'2 2.0
2015-Apr-10 23:28N 33°45' W 118°13'1 0.7
2015-Apr-10 22:29N 33°45' W 118°13'1 0.6
2015-Apr-10 21:33N 33°45' W 118°13'3 0.6
2015-Apr-10 17:08N 33°45' W 118°16'3 0.2
2015-Apr-10 04:31N 33°45' W 118°13'0 0.3
2015-Apr-10 03:33N 33°46' W 118°13'2 1.5
2015-Apr-10 02:12N 33°44' W 118°13'2 2.2
2015-Apr-10 01:31N 33°45' W 118°12'2 1.6
2015-Apr-10 00:33N 33°44' W 118°13'3 0.9
2015-Apr-09 21:07N 33°41' W 118°12'4 7.1
2015-Apr-09 20:32N 33°45' W 118°13'2 1.9
2015-Apr-09 19:33N 33°46' W 118°13'13 3.9
2015-Apr-09 16:17N 33°51' W 118°27'3 4.6
2015-Apr-09 15:33N 33°54' W 118°27'2 1.7
2015-Apr-09 14:32N 33°53' W 118°29'1 1.1
2015-Apr-09 13:33N 33°53' W 118°28'14 1.4
2015-Apr-09 03:24N 33°45' W 118°13'0 0.3
2015-Apr-09 02:33N 33°45' W 118°13'0 0.2
2015-Apr-09 01:33N 33°45' W 118°13'1 0.5
2015-Apr-09 00:30N 33°45' W 118°13'1 1.4
2015-Apr-08 23:33N 33°46' W 118°13'3 0.4
2015-Apr-08 16:13N 33°44' W 118°12'3 3.5
2015-Apr-08 15:13N 33°45' W 118°16'4 0.9
2015-Apr-08 11:25N 33°43' W 118°12'1 0.9
2015-Apr-08 10:16N 33°44' W 118°11'  
Track history (hours):
 
Tides and Currents Weather Stations Pressure Air Temp Water Temp Dewpoint Dewpoint Depression Visibility Wind Speed Wind Dir Waves Ship Positions

John Quigg

Owner: Harley Marine Services, Inc, Seattle, WA. More information available from US FCC via Universal Licensing System and Coast Guard Vessel Documentation Center.

Last reported at 2015-Apr-18 08:33 UTC. Time now 2015-Apr-18 08:45 UTC.
Position N 33°44' W 118°16'.

MMSI: 365934954.

Date/timePositionNaut miles runAvg speedWind from/ knotsBaromVisibWave heightAir tempDewpointWater temp
2015-Apr-18 08:33N 33°44' W 118°16'0 0.0
2015-Apr-18 07:33N 33°44' W 118°16'0 0.0
2015-Apr-18 06:33N 33°44' W 118°16'0 0.0
2015-Apr-18 05:33N 33°44' W 118°16'0 0.0
2015-Apr-18 04:33N 33°44' W 118°16'0 0.0
2015-Apr-18 03:33N 33°44' W 118°16'2 1.6
2015-Apr-18 02:33N 33°45' W 118°17'2 1.9
2015-Apr-18 01:33N 33°44' W 118°15'0 0.1
2015-Apr-18 00:33N 33°44' W 118°15'0 0.4
2015-Apr-17 23:33N 33°44' W 118°16'0 0.3
2015-Apr-17 22:33N 33°44' W 118°16'0 0.3
2015-Apr-17 21:33N 33°44' W 118°16'0 0.0
2015-Apr-17 20:33N 33°44' W 118°16'1 0.5
2015-Apr-17 18:22N 33°45' W 118°16'7 2.4
2015-Apr-17 15:33N 33°44' W 118°08'2 1.6
2015-Apr-17 14:21N 33°44' W 118°06'5 6.1
2015-Apr-17 13:29N 33°44' W 118°12'1 0.8
2015-Apr-17 12:03N 33°45' W 118°13'3 0.3
2015-Apr-17 03:25N 33°45' W 118°16'1 0.8
2015-Apr-17 02:32N 33°45' W 118°16'2 1.7
2015-Apr-17 01:33N 33°44' W 118°16'3 0.5
2015-Apr-16 20:21N 33°44' W 118°12'3 0.6
2015-Apr-16 15:16N 33°46' W 118°15'2 2.5
2015-Apr-16 14:33N 33°45' W 118°17'1 0.7
2015-Apr-16 13:33N 33°44' W 118°16'1 1.3
2015-Apr-16 12:27N 33°45' W 118°17'1 1.1
2015-Apr-16 11:31N 33°44' W 118°17'3 2.7
2015-Apr-16 10:32N 33°43' W 118°14'2 1.8
2015-Apr-16 09:33N 33°44' W 118°16'0 0.0
2015-Apr-16 08:33N 33°44' W 118°16'0 0.0
2015-Apr-16 07:31N 33°44' W 118°16'0 0.0
2015-Apr-16 06:33N 33°44' W 118°16'0 0.0
2015-Apr-16 03:33N 33°44' W 118°16'3 2.7
2015-Apr-16 02:33N 33°46' W 118°13'0 0.2
2015-Apr-16 01:32N 33°45' W 118°13'3 2.7
2015-Apr-16 00:33N 33°44' W 118°11'1 0.7
2015-Apr-15 22:32N 33°44' W 118°09'0 0.0
2015-Apr-15 21:33N 33°44' W 118°09'0 0.0
2015-Apr-15 20:33N 33°44' W 118°09'3 2.7
2015-Apr-15 19:33N 33°44' W 118°12'0 0.4
2015-Apr-15 18:33N 33°45' W 118°13'1 0.8
2015-Apr-15 17:33N 33°45' W 118°13'3 2.9
2015-Apr-15 16:33N 33°43' W 118°15'3 0.4
2015-Apr-15 08:24N 33°46' W 118°15'2 0.4
2015-Apr-15 04:05N 33°45' W 118°13'0 0.0
2015-Apr-15 03:09N 33°45' W 118°13'0 0.2
2015-Apr-15 02:31N 33°45' W 118°13'0 0.2
2015-Apr-15 00:09N 33°45' W 118°13'1 0.9
2015-Apr-14 23:33N 33°45' W 118°13'0 0.2
2015-Apr-14 22:33N 33°45' W 118°13'0 0.0
2015-Apr-14 15:32N 33°45' W 118°13'1 0.5
2015-Apr-14 14:32N 33°46' W 118°13'2 1.6
2015-Apr-14 13:30N 33°45' W 118°12'2 2.0
2015-Apr-14 12:33N 33°46' W 118°13'0 0.4
2015-Apr-14 11:33N 33°46' W 118°13'2 1.6
2015-Apr-14 10:33N 33°46' W 118°15'2 1.5
2015-Apr-14 09:23N 33°45' W 118°17'3 0.5
2015-Apr-14 02:27N 33°45' W 118°13'0 0.1
2015-Apr-14 00:30N 33°45' W 118°13'1 0.6
2015-Apr-13 23:31N 33°45' W 118°13'0 0.0
2015-Apr-13 11:29N 33°45' W 118°13'0 0.5
2015-Apr-13 10:28N 33°45' W 118°13'3 0.9
2015-Apr-13 07:20N 33°44' W 118°16'1 0.8
2015-Apr-13 05:29N 33°43' W 118°14'2 2.2
2015-Apr-13 04:33N 33°44' W 118°12'1 0.6
2015-Apr-13 03:32N 33°45' W 118°12'0 0.4
2015-Apr-13 02:33N 33°45' W 118°13'0 0.3
2015-Apr-13 01:33N 33°45' W 118°13'0 0.0
2015-Apr-13 00:33N 33°45' W 118°13'0 0.0
2015-Apr-12 23:28N 33°45' W 118°13'0 0.0
2015-Apr-12 22:33N 33°45' W 118°13'0 0.0
2015-Apr-12 21:33N 33°45' W 118°13'0 0.4
2015-Apr-12 20:33N 33°45' W 118°12'3 2.9
2015-Apr-12 19:33N 33°44' W 118°16'2 0.5
2015-Apr-12 15:30N 33°45' W 118°14'3 2.0
2015-Apr-12 14:09N 33°44' W 118°11'2 2.8
2015-Apr-12 13:33N 33°44' W 118°12'3 0.3
2015-Apr-12 05:17N 33°44' W 118°16'3 1.7
2015-Apr-12 03:33N 33°44' W 118°12'0 0.0
2015-Apr-12 02:33N 33°44' W 118°12'0 0.0
2015-Apr-12 01:32N 33°44' W 118°12'0 0.0
2015-Apr-12 00:32N 33°44' W 118°12'0 0.0
2015-Apr-11 23:33N 33°44' W 118°12'0 0.1
2015-Apr-11 22:09N 33°44' W 118°12'4 4.2
2015-Apr-11 21:17N 33°45' W 118°16'0 0.1
2015-Apr-11 20:31N 33°45' W 118°17'4 3.8
2015-Apr-11 19:28N 33°44' W 118°12'1 0.8
2015-Apr-11 18:13N 33°45' W 118°12'0 0.1
2015-Apr-11 13:28N 33°45' W 118°13'0 0.4
2015-Apr-11 12:19N 33°45' W 118°13'1 1.3
2015-Apr-11 11:33N 33°46' W 118°13'3 0.4
2015-Apr-11 02:33N 33°43' W 118°14'1 1.3
2015-Apr-11 01:33N 33°44' W 118°16'4 4.1
2015-Apr-11 00:33N 33°44' W 118°11'2 2.0
2015-Apr-10 23:28N 33°45' W 118°13'1 0.7
2015-Apr-10 22:29N 33°45' W 118°13'1 0.6
2015-Apr-10 21:33N 33°45' W 118°13'3 0.6
2015-Apr-10 17:08N 33°45' W 118°16'3 0.2
2015-Apr-10 04:31N 33°45' W 118°13'0 0.3
2015-Apr-10 03:33N 33°46' W 118°13'2 1.5
2015-Apr-10 02:12N 33°44' W 118°13'2 2.2
2015-Apr-10 01:31N 33°45' W 118°12'2 1.6
2015-Apr-10 00:33N 33°44' W 118°13'3 0.9
2015-Apr-09 21:07N 33°41' W 118°12'4 7.1
2015-Apr-09 20:32N 33°45' W 118°13'2 1.9
2015-Apr-09 19:33N 33°46' W 118°13'13 3.9
2015-Apr-09 16:17N 33°51' W 118°27'3 4.6
2015-Apr-09 15:33N 33°54' W 118°27'2 1.7
2015-Apr-09 14:32N 33°53' W 118°29'1 1.1
2015-Apr-09 13:33N 33°53' W 118°28'14 1.4
2015-Apr-09 03:24N 33°45' W 118°13'0 0.3
2015-Apr-09 02:33N 33°45' W 118°13'0 0.2
2015-Apr-09 01:33N 33°45' W 118°13'1 0.5
2015-Apr-09 00:30N 33°45' W 118°13'1 1.4
2015-Apr-08 23:33N 33°46' W 118°13'3 0.4
2015-Apr-08 16:13N 33°44' W 118°12'3 3.5
2015-Apr-08 15:13N 33°45' W 118°16'4 0.9
2015-Apr-08 11:25N 33°43' W 118°12'1 0.9
2015-Apr-08 10:16N 33°44' W 118°11'  

Dump ship's entire track history